sensor_id;sensor_type;location;lat;lon;timestamp;temperature;humidity
4435;DHT22;46552;52.150;8.428;2022-11-20T00:00:25;-1.00;99.90
4435;DHT22;46552;52.150;8.428;2022-11-20T00:02:52;-1.20;99.90
4435;DHT22;46552;52.150;8.428;2022-11-20T00:05:19;-1.20;99.90
4435;DHT22;46552;52.150;8.428;2022-11-20T00:07:46;-1.20;99.90
4435;DHT22;46552;52.150;8.428;2022-11-20T00:10:13;-1.20;99.90
4435;DHT22;46552;52.150;8.428;2022-11-20T00:12:40;-1.20;99.90
4435;DHT22;46552;52.150;8.428;2022-11-20T00:15:09;-1.20;99.90
4435;DHT22;46552;52.150;8.428;2022-11-20T00:17:37;-1.20;99.90
4435;DHT22;46552;52.150;8.428;2022-11-20T00:20:05;-1.10;99.90
4435;DHT22;46552;52.150;8.428;2022-11-20T00:22:32;-1.10;99.90
4435;DHT22;46552;52.150;8.428;2022-11-20T00:24:59;-1.10;99.90
4435;DHT22;46552;52.150;8.428;2022-11-20T00:27:26;-1.10;99.90
4435;DHT22;46552;52.150;8.428;2022-11-20T00:29:54;-1.10;99.90
4435;DHT22;46552;52.150;8.428;2022-11-20T00:32:21;-1.20;99.90
4435;DHT22;46552;52.150;8.428;2022-11-20T00:34:50;-1.30;99.90
4435;DHT22;46552;52.150;8.428;2022-11-20T00:37:17;-1.50;99.90
4435;DHT22;46552;52.150;8.428;2022-11-20T00:39:44;-1.50;99.90
4435;DHT22;46552;52.150;8.428;2022-11-20T00:42:12;-1.50;99.90
4435;DHT22;46552;52.150;8.428;2022-11-20T00:44:39;-1.50;99.90
4435;DHT22;46552;52.150;8.428;2022-11-20T00:47:06;-1.50;99.90
4435;DHT22;46552;52.150;8.428;2022-11-20T00:49:33;-1.50;99.90
4435;DHT22;46552;52.150;8.428;2022-11-20T00:52:03;-1.50;99.90
4435;DHT22;46552;52.150;8.428;2022-11-20T00:54:30;-1.50;99.90
4435;DHT22;46552;52.150;8.428;2022-11-20T00:56:57;-1.60;99.90
4435;DHT22;46552;52.150;8.428;2022-11-20T00:59:24;-1.40;99.90
4435;DHT22;46552;52.150;8.428;2022-11-20T01:01:52;-1.70;99.90
4435;DHT22;46552;52.150;8.428;2022-11-20T01:04:20;-1.70;99.90
4435;DHT22;46552;52.150;8.428;2022-11-20T01:06:47;-1.70;99.90
4435;DHT22;46552;52.150;8.428;2022-11-20T01:09:16;-1.70;99.90
4435;DHT22;46552;52.150;8.428;2022-11-20T01:11:44;-1.70;99.90
4435;DHT22;46552;52.150;8.428;2022-11-20T01:14:13;-1.70;99.90
4435;DHT22;46552;52.150;8.428;2022-11-20T01:16:43;-1.60;99.90
4435;DHT22;46552;52.150;8.428;2022-11-20T01:19:12;-1.60;99.90
4435;DHT22;46552;52.150;8.428;2022-11-20T01:21:42;-1.60;99.90
4435;DHT22;46552;52.150;8.428;2022-11-20T01:24:13;-1.60;99.90
4435;DHT22;46552;52.150;8.428;2022-11-20T01:26:43;-1.50;99.90
4435;DHT22;46552;52.150;8.428;2022-11-20T01:29:14;-1.50;99.90
4435;DHT22;46552;52.150;8.428;2022-11-20T01:31:42;-1.60;99.90
4435;DHT22;46552;52.150;8.428;2022-11-20T01:34:12;-1.70;99.90
4435;DHT22;46552;52.150;8.428;2022-11-20T01:36:41;-1.70;99.90
4435;DHT22;46552;52.150;8.428;2022-11-20T01:39:11;-1.70;99.90
4435;DHT22;46552;52.150;8.428;2022-11-20T01:41:39;-1.70;99.90
4435;DHT22;46552;52.150;8.428;2022-11-20T01:44:49;-1.80;99.90
4435;DHT22;46552;52.150;8.428;2022-11-20T01:47:20;-1.80;99.90
4435;DHT22;46552;52.150;8.428;2022-11-20T01:49:50;-1.90;99.90
4435;DHT22;46552;52.150;8.428;2022-11-20T01:52:21;-1.90;99.90
4435;DHT22;46552;52.150;8.428;2022-11-20T01:54:51;-1.90;99.90
4435;DHT22;46552;52.150;8.428;2022-11-20T01:57:21;-1.90;99.90
4435;DHT22;46552;52.150;8.428;2022-11-20T01:59:55;-1.80;99.90
4435;DHT22;46552;52.150;8.428;2022-11-20T02:02:23;-1.90;99.90
4435;DHT22;46552;52.150;8.428;2022-11-20T02:04:51;-2.00;99.90
4435;DHT22;46552;52.150;8.428;2022-11-20T02:07:21;-2.00;99.90
4435;DHT22;46552;52.150;8.428;2022-11-20T02:09:50;-2.00;99.90
4435;DHT22;46552;52.150;8.428;2022-11-20T02:12:17;-2.00;99.90
4435;DHT22;46552;52.150;8.428;2022-11-20T02:15:00;-2.00;99.90
4435;DHT22;46552;52.150;8.428;2022-11-20T02:17:28;-2.10;99.90
4435;DHT22;46552;52.150;8.428;2022-11-20T02:19:55;-1.90;99.90
4435;DHT22;46552;52.150;8.428;2022-11-20T02:22:28;-2.10;99.90
4435;DHT22;46552;52.150;8.428;2022-11-20T02:25:01;-2.20;99.90
4435;DHT22;46552;52.150;8.428;2022-11-20T02:27:29;-2.10;99.90
4435;DHT22;46552;52.150;8.428;2022-11-20T02:29:59;-2.10;99.90
4435;DHT22;46552;52.150;8.428;2022-11-20T02:32:29;-2.10;99.90
4435;DHT22;46552;52.150;8.428;2022-11-20T02:34:58;-2.00;99.90
4435;DHT22;46552;52.150;8.428;2022-11-20T02:37:30;-2.00;99.90
4435;DHT22;46552;52.150;8.428;2022-11-20T02:39:59;-2.00;99.90
4435;DHT22;46552;52.150;8.428;2022-11-20T02:42:26;-2.00;99.90
4435;DHT22;46552;52.150;8.428;2022-11-20T02:44:53;-2.00;99.90
4435;DHT22;46552;52.150;8.428;2022-11-20T02:47:20;-2.10;99.90
4435;DHT22;46552;52.150;8.428;2022-11-20T02:49:48;-2.10;99.90
4435;DHT22;46552;52.150;8.428;2022-11-20T02:52:16;-2.20;99.90
4435;DHT22;46552;52.150;8.428;2022-11-20T02:54:43;-2.20;99.90
4435;DHT22;46552;52.150;8.428;2022-11-20T02:57:11;-2.40;99.90
4435;DHT22;46552;52.150;8.428;2022-11-20T02:59:38;-2.40;99.90
4435;DHT22;46552;52.150;8.428;2022-11-20T03:02:05;-2.40;99.90
4435;DHT22;46552;52.150;8.428;2022-11-20T03:04:33;-2.40;99.90
4435;DHT22;46552;52.150;8.428;2022-11-20T03:07:00;-2.40;99.90
4435;DHT22;46552;52.150;8.428;2022-11-20T03:09:27;-2.30;99.90
4435;DHT22;46552;52.150;8.428;2022-11-20T03:11:54;-2.30;99.90
4435;DHT22;46552;52.150;8.428;2022-11-20T03:14:23;-2.30;99.90
4435;DHT22;46552;52.150;8.428;2022-11-20T03:16:51;-2.30;99.90
4435;DHT22;46552;52.150;8.428;2022-11-20T03:19:18;-2.30;99.90
4435;DHT22;46552;52.150;8.428;2022-11-20T03:21:45;-2.30;99.90
4435;DHT22;46552;52.150;8.428;2022-11-20T03:24:13;-2.20;99.90
4435;DHT22;46552;52.150;8.428;2022-11-20T03:26:41;-1.90;99.90
4435;DHT22;46552;52.150;8.428;2022-11-20T03:29:08;-2.20;99.90
4435;DHT22;46552;52.150;8.428;2022-11-20T03:31:40;-2.20;99.90
4435;DHT22;46552;52.150;8.428;2022-11-20T03:34:08;-2.20;99.90
4435;DHT22;46552;52.150;8.428;2022-11-20T03:36:37;-2.20;99.90
4435;DHT22;46552;52.150;8.428;2022-11-20T03:39:06;-2.20;99.90
4435;DHT22;46552;52.150;8.428;2022-11-20T03:41:37;-2.20;99.90
4435;DHT22;46552;52.150;8.428;2022-11-20T03:44:06;-2.20;99.90
4435;DHT22;46552;52.150;8.428;2022-11-20T03:46:33;-2.20;99.90
4435;DHT22;46552;52.150;8.428;2022-11-20T03:49:01;-2.20;99.90
4435;DHT22;46552;52.150;8.428;2022-11-20T03:51:30;-2.20;99.90
4435;DHT22;46552;52.150;8.428;2022-11-20T03:53:59;-2.20;99.90
4435;DHT22;46552;52.150;8.428;2022-11-20T03:56:28;-2.10;99.90
4435;DHT22;46552;52.150;8.428;2022-11-20T03:58:57;-2.30;99.90
4435;DHT22;46552;52.150;8.428;2022-11-20T04:01:26;-2.40;99.90
4435;DHT22;46552;52.150;8.428;2022-11-20T04:03:55;-2.50;99.90
4435;DHT22;46552;52.150;8.428;2022-11-20T04:06:28;-2.60;99.90
4435;DHT22;46552;52.150;8.428;2022-11-20T04:08:56;-2.70;99.90
4435;DHT22;46552;52.150;8.428;2022-11-20T04:11:25;-2.80;99.90
4435;DHT22;46552;52.150;8.428;2022-11-20T04:13:55;-2.80;99.90
4435;DHT22;46552;52.150;8.428;2022-11-20T04:16:24;-2.80;99.90
4435;DHT22;46552;52.150;8.428;2022-11-20T04:18:53;-2.80;99.90
4435;DHT22;46552;52.150;8.428;2022-11-20T04:21:21;-2.80;99.90
4435;DHT22;46552;52.150;8.428;2022-11-20T04:23:50;-2.80;99.90
4435;DHT22;46552;52.150;8.428;2022-11-20T04:26:18;-2.80;99.90
4435;DHT22;46552;52.150;8.428;2022-11-20T04:28:47;-2.80;99.90
4435;DHT22;46552;52.150;8.428;2022-11-20T04:31:16;-2.80;99.90
4435;DHT22;46552;52.150;8.428;2022-11-20T04:33:43;-2.60;99.90
4435;DHT22;46552;52.150;8.428;2022-11-20T04:36:12;-2.90;99.90
4435;DHT22;46552;52.150;8.428;2022-11-20T04:38:40;-2.90;99.90
4435;DHT22;46552;52.150;8.428;2022-11-20T04:41:13;-2.80;99.90
4435;DHT22;46552;52.150;8.428;2022-11-20T04:43:41;-3.00;99.90
4435;DHT22;46552;52.150;8.428;2022-11-20T04:46:08;-2.90;99.90
4435;DHT22;46552;52.150;8.428;2022-11-20T04:48:35;-2.90;99.90
4435;DHT22;46552;52.150;8.428;2022-11-20T04:51:03;-2.90;99.90
4435;DHT22;46552;52.150;8.428;2022-11-20T04:53:30;-2.90;99.90
4435;DHT22;46552;52.150;8.428;2022-11-20T04:56:00;-2.90;99.90
4435;DHT22;46552;52.150;8.428;2022-11-20T04:58:28;-3.00;99.90
4435;DHT22;46552;52.150;8.428;2022-11-20T05:01:01;-2.90;99.90
4435;DHT22;46552;52.150;8.428;2022-11-20T05:03:28;-2.90;99.90
4435;DHT22;46552;52.150;8.428;2022-11-20T05:05:56;-2.90;99.90
4435;DHT22;46552;52.150;8.428;2022-11-20T05:08:24;-2.90;99.90
4435;DHT22;46552;52.150;8.428;2022-11-20T05:10:51;-2.90;99.90
4435;DHT22;46552;52.150;8.428;2022-11-20T05:13:18;-2.90;99.90
4435;DHT22;46552;52.150;8.428;2022-11-20T05:15:47;-2.90;99.90
4435;DHT22;46552;52.150;8.428;2022-11-20T05:18:14;-2.90;99.90
4435;DHT22;46552;52.150;8.428;2022-11-20T05:20:42;-3.00;99.90
4435;DHT22;46552;52.150;8.428;2022-11-20T05:23:11;-3.10;99.90
4435;DHT22;46552;52.150;8.428;2022-11-20T05:25:38;-3.20;99.90
4435;DHT22;46552;52.150;8.428;2022-11-20T05:28:05;-3.20;99.90
4435;DHT22;46552;52.150;8.428;2022-11-20T05:30:32;-3.30;99.90
4435;DHT22;46552;52.150;8.428;2022-11-20T05:33:02;-2.40;99.90
4435;DHT22;46552;52.150;8.428;2022-11-20T05:35:29;-3.20;99.90
4435;DHT22;46552;52.150;8.428;2022-11-20T05:37:56;-3.20;99.90
4435;DHT22;46552;52.150;8.428;2022-11-20T05:40:23;-2.80;99.90
4435;DHT22;46552;52.150;8.428;2022-11-20T05:42:50;-3.10;99.90
4435;DHT22;46552;52.150;8.428;2022-11-20T05:45:17;-2.70;99.90
4435;DHT22;46552;52.150;8.428;2022-11-20T05:47:45;-3.00;99.90
4435;DHT22;46552;52.150;8.428;2022-11-20T05:50:15;-2.70;99.90
4435;DHT22;46552;52.150;8.428;2022-11-20T05:52:42;-2.90;99.90
4435;DHT22;46552;52.150;8.428;2022-11-20T05:55:09;-2.20;99.90
4435;DHT22;46552;52.150;8.428;2022-11-20T05:57:36;-2.90;99.90
4435;DHT22;46552;52.150;8.428;2022-11-20T06:00:04;-2.90;99.90
4435;DHT22;46552;52.150;8.428;2022-11-20T06:02:34;-2.80;99.90
4435;DHT22;46552;52.150;8.428;2022-11-20T06:05:03;-2.80;99.90
4435;DHT22;46552;52.150;8.428;2022-11-20T06:07:31;-2.80;99.90
4435;DHT22;46552;52.150;8.428;2022-11-20T06:09:58;-2.90;99.90
4435;DHT22;46552;52.150;8.428;2022-11-20T06:12:25;-2.80;99.90
4435;DHT22;46552;52.150;8.428;2022-11-20T06:14:53;-2.80;99.90
4435;DHT22;46552;52.150;8.428;2022-11-20T06:17:20;-2.90;99.90
4435;DHT22;46552;52.150;8.428;2022-11-20T06:19:47;-2.80;99.90
4435;DHT22;46552;52.150;8.428;2022-11-20T06:22:14;-2.90;99.90
4435;DHT22;46552;52.150;8.428;2022-11-20T06:24:42;-2.90;99.90
4435;DHT22;46552;52.150;8.428;2022-11-20T06:27:09;-2.80;99.90
4435;DHT22;46552;52.150;8.428;2022-11-20T06:29:38;-2.70;99.90
4435;DHT22;46552;52.150;8.428;2022-11-20T06:32:05;-2.90;99.90
4435;DHT22;46552;52.150;8.428;2022-11-20T06:34:32;-3.00;99.90
4435;DHT22;46552;52.150;8.428;2022-11-20T06:36:59;-3.00;99.90
4435;DHT22;46552;52.150;8.428;2022-11-20T06:39:26;-3.00;99.90
4435;DHT22;46552;52.150;8.428;2022-11-20T06:41:55;-3.00;99.90
4435;DHT22;46552;52.150;8.428;2022-11-20T06:44:22;-2.10;99.90
4435;DHT22;46552;52.150;8.428;2022-11-20T06:46:49;-3.10;99.90
4435;DHT22;46552;52.150;8.428;2022-11-20T06:49:16;-3.10;99.90
4435;DHT22;46552;52.150;8.428;2022-11-20T06:51:43;-3.10;99.90
4435;DHT22;46552;52.150;8.428;2022-11-20T06:54:10;-2.90;99.90
4435;DHT22;46552;52.150;8.428;2022-11-20T06:56:37;-3.20;99.90
4435;DHT22;46552;52.150;8.428;2022-11-20T06:59:06;-3.10;99.90
4435;DHT22;46552;52.150;8.428;2022-11-20T07:01:33;-3.20;99.90
4435;DHT22;46552;52.150;8.428;2022-11-20T07:04:01;-1.90;99.90
4435;DHT22;46552;52.150;8.428;2022-11-20T07:06:28;-3.00;99.90
4435;DHT22;46552;52.150;8.428;2022-11-20T07:08:56;-2.30;99.90
4435;DHT22;46552;52.150;8.428;2022-11-20T07:11:23;-3.10;99.90
4435;DHT22;46552;52.150;8.428;2022-11-20T07:13:51;-3.00;99.90
4435;DHT22;46552;52.150;8.428;2022-11-20T07:16:19;-3.10;99.90
4435;DHT22;46552;52.150;8.428;2022-11-20T07:18:46;-2.90;99.90
4435;DHT22;46552;52.150;8.428;2022-11-20T07:21:14;-2.30;99.90
4435;DHT22;46552;52.150;8.428;2022-11-20T07:23:41;-1.40;99.90
4435;DHT22;46552;52.150;8.428;2022-11-20T07:26:10;-0.70;99.90
4435;DHT22;46552;52.150;8.428;2022-11-20T07:28:37;-0.40;99.20
4435;DHT22;46552;52.150;8.428;2022-11-20T07:31:05;-0.40;98.60
4435;DHT22;46552;52.150;8.428;2022-11-20T07:33:34;-0.20;98.70
4435;DHT22;46552;52.150;8.428;2022-11-20T07:36:02;0.10;98.40
4435;DHT22;46552;52.150;8.428;2022-11-20T07:38:29;0.30;97.60
4435;DHT22;46552;52.150;8.428;2022-11-20T07:40:57;0.90;98.00
4435;DHT22;46552;52.150;8.428;2022-11-20T07:43:27;0.60;97.30
4435;DHT22;46552;52.150;8.428;2022-11-20T07:45:55;0.30;97.30
4435;DHT22;46552;52.150;8.428;2022-11-20T07:48:22;0.00;97.80
4435;DHT22;46552;52.150;8.428;2022-11-20T07:50:53;-0.30;98.00
4435;DHT22;46552;52.150;8.428;2022-11-20T07:53:20;-0.40;98.30
4435;DHT22;46552;52.150;8.428;2022-11-20T07:55:48;-0.60;98.60
4435;DHT22;46552;52.150;8.428;2022-11-20T07:58:17;-0.80;98.90
4435;DHT22;46552;52.150;8.428;2022-11-20T08:00:44;-0.90;99.10
4435;DHT22;46552;52.150;8.428;2022-11-20T08:03:12;-0.80;99.90
4435;DHT22;46552;52.150;8.428;2022-11-20T08:05:39;0.50;99.90
4435;DHT22;46552;52.150;8.428;2022-11-20T08:08:08;1.90;98.00
4435;DHT22;46552;52.150;8.428;2022-11-20T08:10:35;3.60;96.20
4435;DHT22;46552;52.150;8.428;2022-11-20T08:13:02;5.10;93.90
4435;DHT22;46552;52.150;8.428;2022-11-20T08:15:49;6.40;92.50
4435;DHT22;46552;52.150;8.428;2022-11-20T08:18:17;7.70;90.60
4435;DHT22;46552;52.150;8.428;2022-11-20T08:20:45;8.40;83.20
4435;DHT22;46552;52.150;8.428;2022-11-20T08:23:14;9.10;82.60
4435;DHT22;46552;52.150;8.428;2022-11-20T08:25:42;9.40;81.70
4435;DHT22;46552;52.150;8.428;2022-11-20T08:28:09;9.80;81.10
4435;DHT22;46552;52.150;8.428;2022-11-20T08:30:37;9.30;79.70
4435;DHT22;46552;52.150;8.428;2022-11-20T08:33:06;8.40;80.10
4435;DHT22;46552;52.150;8.428;2022-11-20T08:35:34;7.50;81.80
4435;DHT22;46552;52.150;8.428;2022-11-20T08:38:02;6.30;82.80
4435;DHT22;46552;52.150;8.428;2022-11-20T08:40:31;5.80;87.10
4435;DHT22;46552;52.150;8.428;2022-11-20T08:42:58;5.10;88.20
4435;DHT22;46552;52.150;8.428;2022-11-20T08:45:26;4.40;90.30
4435;DHT22;46552;52.150;8.428;2022-11-20T08:47:53;3.90;91.30
4435;DHT22;46552;52.150;8.428;2022-11-20T08:50:20;3.30;92.20
4435;DHT22;46552;52.150;8.428;2022-11-20T08:52:47;2.80;93.30
4435;DHT22;46552;52.150;8.428;2022-11-20T08:55:15;2.30;94.60
4435;DHT22;46552;52.150;8.428;2022-11-20T08:57:43;2.00;96.20
4435;DHT22;46552;52.150;8.428;2022-11-20T09:00:11;1.80;96.70
4435;DHT22;46552;52.150;8.428;2022-11-20T09:02:39;1.80;97.00
4435;DHT22;46552;52.150;8.428;2022-11-20T09:05:06;1.80;97.40
4435;DHT22;46552;52.150;8.428;2022-11-20T09:07:35;1.70;97.70
4435;DHT22;46552;52.150;8.428;2022-11-20T09:10:02;1.70;97.90
4435;DHT22;46552;52.150;8.428;2022-11-20T09:12:30;1.40;98.70
4435;DHT22;46552;52.150;8.428;2022-11-20T09:14:59;1.20;99.90
4435;DHT22;46552;52.150;8.428;2022-11-20T09:17:26;1.30;99.90
4435;DHT22;46552;52.150;8.428;2022-11-20T09:19:53;1.10;99.90
4435;DHT22;46552;52.150;8.428;2022-11-20T09:22:20;1.50;99.90
4435;DHT22;46552;52.150;8.428;2022-11-20T09:24:47;1.10;99.90
4435;DHT22;46552;52.150;8.428;2022-11-20T09:27:14;1.20;99.90
4435;DHT22;46552;52.150;8.428;2022-11-20T09:29:41;1.40;99.90
4435;DHT22;46552;52.150;8.428;2022-11-20T09:32:10;1.70;99.90
4435;DHT22;46552;52.150;8.428;2022-11-20T09:34:38;1.40;99.90
4435;DHT22;46552;52.150;8.428;2022-11-20T09:37:05;1.30;99.90
4435;DHT22;46552;52.150;8.428;2022-11-20T09:39:32;1.40;99.90
4435;DHT22;46552;52.150;8.428;2022-11-20T09:42:21;1.30;99.90
4435;DHT22;46552;52.150;8.428;2022-11-20T09:45:03;1.40;99.90
4435;DHT22;46552;52.150;8.428;2022-11-20T09:47:46;1.40;99.90
4435;DHT22;46552;52.150;8.428;2022-11-20T09:50:25;1.50;99.90
4435;DHT22;46552;52.150;8.428;2022-11-20T09:53:08;1.90;99.90
4435;DHT22;46552;52.150;8.428;2022-11-20T09:55:39;2.30;99.90
4435;DHT22;46552;52.150;8.428;2022-11-20T09:58:10;2.70;99.90
4435;DHT22;46552;52.150;8.428;2022-11-20T10:00:40;3.60;99.90
4435;DHT22;46552;52.150;8.428;2022-11-20T10:03:14;4.40;99.70
4435;DHT22;46552;52.150;8.428;2022-11-20T10:05:45;5.00;98.70
4435;DHT22;46552;52.150;8.428;2022-11-20T10:08:17;5.50;98.20
4435;DHT22;46552;52.150;8.428;2022-11-20T10:10:52;6.20;97.10
4435;DHT22;46552;52.150;8.428;2022-11-20T10:13:33;6.50;96.30
4435;DHT22;46552;52.150;8.428;2022-11-20T10:16:11;6.70;95.80
4435;DHT22;46552;52.150;8.428;2022-11-20T10:18:58;6.50;95.80
4435;DHT22;46552;52.150;8.428;2022-11-20T10:21:35;6.30;95.70
4435;DHT22;46552;52.150;8.428;2022-11-20T10:24:28;6.20;96.00
4435;DHT22;46552;52.150;8.428;2022-11-20T10:27:06;6.50;95.80
4435;DHT22;46552;52.150;8.428;2022-11-20T10:29:39;7.00;95.80
4435;DHT22;46552;52.150;8.428;2022-11-20T10:32:13;7.90;95.00
4435;DHT22;46552;52.150;8.428;2022-11-20T10:34:48;8.20;94.00
4435;DHT22;46552;52.150;8.428;2022-11-20T10:37:19;8.20;92.50
4435;DHT22;46552;52.150;8.428;2022-11-20T10:39:52;8.10;93.50
4435;DHT22;46552;52.150;8.428;2022-11-20T10:42:26;8.00;93.40
4435;DHT22;46552;52.150;8.428;2022-11-20T10:45:09;8.30;93.40
4435;DHT22;46552;52.150;8.428;2022-11-20T10:47:38;8.60;93.10
4435;DHT22;46552;52.150;8.428;2022-11-20T10:50:11;9.70;92.60
4435;DHT22;46552;52.150;8.428;2022-11-20T10:52:48;11.00;90.10
4435;DHT22;46552;52.150;8.428;2022-11-20T10:55:27;11.80;86.60
4435;DHT22;46552;52.150;8.428;2022-11-20T10:58:04;12.60;85.30
4435;DHT22;46552;52.150;8.428;2022-11-20T11:00:36;13.80;80.40
4435;DHT22;46552;52.150;8.428;2022-11-20T11:03:20;14.40;78.00
4435;DHT22;46552;52.150;8.428;2022-11-20T11:05:51;14.80;74.40
4435;DHT22;46552;52.150;8.428;2022-11-20T11:08:21;14.90;73.90
4435;DHT22;46552;52.150;8.428;2022-11-20T11:10:52;15.00;73.20
4435;DHT22;46552;52.150;8.428;2022-11-20T11:13:21;14.90;71.70
4435;DHT22;46552;52.150;8.428;2022-11-20T11:15:49;14.50;71.40
4435;DHT22;46552;52.150;8.428;2022-11-20T11:18:24;14.40;71.60
4435;DHT22;46552;52.150;8.428;2022-11-20T11:20:55;15.20;69.20
4435;DHT22;46552;52.150;8.428;2022-11-20T11:23:30;16.10;67.70
4435;DHT22;46552;52.150;8.428;2022-11-20T11:26:00;16.50;64.10
4435;DHT22;46552;52.150;8.428;2022-11-20T11:28:28;16.40;64.40
4435;DHT22;46552;52.150;8.428;2022-11-20T11:30:56;15.80;63.30
4435;DHT22;46552;52.150;8.428;2022-11-20T11:33:25;14.90;63.70
4435;DHT22;46552;52.150;8.428;2022-11-20T11:35:56;14.10;65.90
4435;DHT22;46552;52.150;8.428;2022-11-20T11:38:30;13.30;65.10
4435;DHT22;46552;52.150;8.428;2022-11-20T11:40:57;13.00;67.10
4435;DHT22;46552;52.150;8.428;2022-11-20T11:43:26;12.50;68.20
4435;DHT22;46552;52.150;8.428;2022-11-20T11:46:29;12.00;69.40
4435;DHT22;46552;52.150;8.428;2022-11-20T11:48:58;11.80;69.40
4435;DHT22;46552;52.150;8.428;2022-11-20T11:51:36;11.60;71.10
4435;DHT22;46552;52.150;8.428;2022-11-20T11:54:14;11.60;71.70
4435;DHT22;46552;52.150;8.428;2022-11-20T11:56:44;11.60;71.40
4435;DHT22;46552;52.150;8.428;2022-11-20T11:59:18;11.60;73.10
4435;DHT22;46552;52.150;8.428;2022-11-20T12:01:54;11.50;72.70
4435;DHT22;46552;52.150;8.428;2022-11-20T12:04:39;11.50;72.70
4435;DHT22;46552;52.150;8.428;2022-11-20T12:07:13;11.30;72.00
4435;DHT22;46552;52.150;8.428;2022-11-20T12:09:47;11.20;72.70
4435;DHT22;46552;52.150;8.428;2022-11-20T12:12:17;11.00;71.60
4435;DHT22;46552;52.150;8.428;2022-11-20T12:14:47;10.70;70.50
4435;DHT22;46552;52.150;8.428;2022-11-20T12:17:15;10.30;70.90
4435;DHT22;46552;52.150;8.428;2022-11-20T12:19:43;9.90;73.20
4435;DHT22;46552;52.150;8.428;2022-11-20T12:22:24;9.40;72.90
4435;DHT22;46552;52.150;8.428;2022-11-20T12:24:58;9.00;74.00
4435;DHT22;46552;52.150;8.428;2022-11-20T12:27:43;8.80;74.70
4435;DHT22;46552;52.150;8.428;2022-11-20T12:30:16;8.60;75.10
4435;DHT22;46552;52.150;8.428;2022-11-20T12:33:07;8.30;75.20
4435;DHT22;46552;52.150;8.428;2022-11-20T12:35:48;8.10;75.70
4435;DHT22;46552;52.150;8.428;2022-11-20T12:38:58;8.20;76.50
4435;DHT22;46552;52.150;8.428;2022-11-20T12:41:40;8.10;75.30
4435;DHT22;46552;52.150;8.428;2022-11-20T12:45:06;7.60;76.10
4435;DHT22;46552;52.150;8.428;2022-11-20T12:47:50;7.60;77.70
4435;DHT22;46552;52.150;8.428;2022-11-20T12:50:27;7.50;77.70
4435;DHT22;46552;52.150;8.428;2022-11-20T12:52:57;7.60;77.90
4435;DHT22;46552;52.150;8.428;2022-11-20T12:55:34;7.50;77.70
4435;DHT22;46552;52.150;8.428;2022-11-20T12:58:08;7.50;79.30
4435;DHT22;46552;52.150;8.428;2022-11-20T13:00:43;7.50;79.40
4435;DHT22;46552;52.150;8.428;2022-11-20T13:03:37;7.30;80.50
4435;DHT22;46552;52.150;8.428;2022-11-20T13:06:14;6.90;80.90
4435;DHT22;46552;52.150;8.428;2022-11-20T13:08:45;6.80;81.20
4435;DHT22;46552;52.150;8.428;2022-11-20T13:11:20;6.60;82.60
4435;DHT22;46552;52.150;8.428;2022-11-20T13:14:09;6.30;83.00
4435;DHT22;46552;52.150;8.428;2022-11-20T13:16:40;6.20;84.80
4435;DHT22;46552;52.150;8.428;2022-11-20T13:19:12;6.10;84.20
4435;DHT22;46552;52.150;8.428;2022-11-20T13:21:41;6.20;84.70
4435;DHT22;46552;52.150;8.428;2022-11-20T13:24:22;6.30;83.90
4435;DHT22;46552;52.150;8.428;2022-11-20T13:27:05;6.40;83.90
4435;DHT22;46552;52.150;8.428;2022-11-20T13:29:45;6.50;83.60
4435;DHT22;46552;52.150;8.428;2022-11-20T13:32:15;6.60;83.40
4435;DHT22;46552;52.150;8.428;2022-11-20T13:34:53;6.60;83.40
4435;DHT22;46552;52.150;8.428;2022-11-20T13:37:28;6.80;84.40
4435;DHT22;46552;52.150;8.428;2022-11-20T13:43:04;6.90;83.20
4435;DHT22;46552;52.150;8.428;2022-11-20T13:45:34;7.00;82.80
4435;DHT22;46552;52.150;8.428;2022-11-20T13:48:03;7.00;82.50
4435;DHT22;46552;52.150;8.428;2022-11-20T13:50:46;7.00;82.80
4435;DHT22;46552;52.150;8.428;2022-11-20T13:53:29;7.00;83.20
4435;DHT22;46552;52.150;8.428;2022-11-20T13:56:05;7.00;82.90
4435;DHT22;46552;52.150;8.428;2022-11-20T13:58:47;6.90;82.90
4435;DHT22;46552;52.150;8.428;2022-11-20T14:01:19;6.70;83.30
4435;DHT22;46552;52.150;8.428;2022-11-20T14:03:47;6.60;83.70
4435;DHT22;46552;52.150;8.428;2022-11-20T14:06:23;6.50;83.80
4435;DHT22;46552;52.150;8.428;2022-11-20T14:08:52;6.40;84.30
4435;DHT22;46552;52.150;8.428;2022-11-20T14:11:21;6.40;84.70
4435;DHT22;46552;52.150;8.428;2022-11-20T14:14:02;6.30;84.90
4435;DHT22;46552;52.150;8.428;2022-11-20T14:16:32;6.30;85.50
4435;DHT22;46552;52.150;8.428;2022-11-20T14:19:24;6.30;85.30
4435;DHT22;46552;52.150;8.428;2022-11-20T14:21:54;6.20;85.70
4435;DHT22;46552;52.150;8.428;2022-11-20T14:24:32;6.10;85.30
4435;DHT22;46552;52.150;8.428;2022-11-20T14:27:00;6.10;85.50
4435;DHT22;46552;52.150;8.428;2022-11-20T14:29:32;5.90;86.00
4435;DHT22;46552;52.150;8.428;2022-11-20T14:32:18;5.80;86.40
4435;DHT22;46552;52.150;8.428;2022-11-20T14:34:49;5.60;86.80
4435;DHT22;46552;52.150;8.428;2022-11-20T14:37:20;5.50;87.30
4435;DHT22;46552;52.150;8.428;2022-11-20T14:39:51;5.40;87.90
4435;DHT22;46552;52.150;8.428;2022-11-20T14:42:20;5.40;88.40
4435;DHT22;46552;52.150;8.428;2022-11-20T14:44:51;5.30;88.60
4435;DHT22;46552;52.150;8.428;2022-11-20T14:47:21;5.20;89.30
4435;DHT22;46552;52.150;8.428;2022-11-20T14:49:49;5.10;89.20
4435;DHT22;46552;52.150;8.428;2022-11-20T14:52:18;5.10;90.00
4435;DHT22;46552;52.150;8.428;2022-11-20T14:54:47;5.10;90.20
4435;DHT22;46552;52.150;8.428;2022-11-20T14:57:26;5.10;90.20
4435;DHT22;46552;52.150;8.428;2022-11-20T15:00:07;5.10;90.40
4435;DHT22;46552;52.150;8.428;2022-11-20T15:02:38;5.00;90.70
4435;DHT22;46552;52.150;8.428;2022-11-20T15:05:06;5.00;90.70
4435;DHT22;46552;52.150;8.428;2022-11-20T15:07:35;5.00;90.90
4435;DHT22;46552;52.150;8.428;2022-11-20T15:10:04;5.00;91.20
4435;DHT22;46552;52.150;8.428;2022-11-20T15:12:33;4.90;91.60
4435;DHT22;46552;52.150;8.428;2022-11-20T15:15:02;4.90;91.60
4435;DHT22;46552;52.150;8.428;2022-11-20T15:17:32;4.80;91.80
4435;DHT22;46552;52.150;8.428;2022-11-20T15:20:09;4.80;92.00
4435;DHT22;46552;52.150;8.428;2022-11-20T15:22:38;4.80;92.30
4435;DHT22;46552;52.150;8.428;2022-11-20T15:25:12;4.80;92.40
4435;DHT22;46552;52.150;8.428;2022-11-20T15:27:39;4.70;92.70
4435;DHT22;46552;52.150;8.428;2022-11-20T15:30:13;4.70;92.80
4435;DHT22;46552;52.150;8.428;2022-11-20T15:32:43;4.70;93.10
4435;DHT22;46552;52.150;8.428;2022-11-20T15:35:10;4.60;93.30
4435;DHT22;46552;52.150;8.428;2022-11-20T15:37:37;4.60;93.40
4435;DHT22;46552;52.150;8.428;2022-11-20T15:40:06;4.60;93.50
4435;DHT22;46552;52.150;8.428;2022-11-20T15:42:34;4.50;93.70
4435;DHT22;46552;52.150;8.428;2022-11-20T15:45:02;4.50;94.00
4435;DHT22;46552;52.150;8.428;2022-11-20T15:47:32;4.50;94.20
4435;DHT22;46552;52.150;8.428;2022-11-20T15:50:01;4.40;94.40
4435;DHT22;46552;52.150;8.428;2022-11-20T15:52:28;4.40;94.50
4435;DHT22;46552;52.150;8.428;2022-11-20T15:54:55;4.30;94.40
4435;DHT22;46552;52.150;8.428;2022-11-20T15:57:22;4.30;94.60
4435;DHT22;46552;52.150;8.428;2022-11-20T15:59:50;4.30;94.70
4435;DHT22;46552;52.150;8.428;2022-11-20T16:02:17;4.30;94.70
4435;DHT22;46552;52.150;8.428;2022-11-20T16:04:44;4.20;94.80
4435;DHT22;46552;52.150;8.428;2022-11-20T16:07:13;4.20;94.90
4435;DHT22;46552;52.150;8.428;2022-11-20T16:09:40;4.20;95.10
4435;DHT22;46552;52.150;8.428;2022-11-20T16:12:09;4.20;95.00
4435;DHT22;46552;52.150;8.428;2022-11-20T16:14:57;4.20;95.10
4435;DHT22;46552;52.150;8.428;2022-11-20T16:17:41;4.20;95.60